createdAt,value
2022-11-25T00:01:14.157Z,56.00
2022-11-25T00:03:42.470Z,56.20
2022-11-25T00:06:13.997Z,56.30
2022-11-25T00:08:41.598Z,56.30
2022-11-25T00:11:08.533Z,56.10
2022-11-25T00:13:35.683Z,56.30
2022-11-25T00:16:03.757Z,55.60
2022-11-25T00:18:30.858Z,56.20
2022-11-25T00:20:57.954Z,56.30
2022-11-25T00:23:27.888Z,56.20
2022-11-25T00:25:57.164Z,56.10
2022-11-25T00:28:23.833Z,56.40
2022-11-25T00:30:50.516Z,55.70
2022-11-25T00:33:18.601Z,56.10
2022-11-25T00:35:45.319Z,56.40
2022-11-25T00:38:12.008Z,56.30
2022-11-25T00:40:38.755Z,56.00
2022-11-25T00:43:24.126Z,56.30
2022-11-25T00:45:50.909Z,55.50
2022-11-25T00:48:17.678Z,56.30
2022-11-25T00:50:44.383Z,56.50
2022-11-25T00:53:11.122Z,56.20
2022-11-25T00:55:57.777Z,56.50
2022-11-25T00:58:24.437Z,55.90
2022-11-25T01:00:51.359Z,56.10
2022-11-25T01:03:18.133Z,56.30
2022-11-25T01:05:44.804Z,56.40
2022-11-25T01:08:11.495Z,56.30
2022-11-25T01:10:38.214Z,56.10
2022-11-25T01:13:04.922Z,55.80
2022-11-25T01:17:59.035Z,56.40
2022-11-25T01:20:25.780Z,56.30
2022-11-25T01:22:53.025Z,56.40
2022-11-25T01:25:19.679Z,56.00
2022-11-25T01:27:46.328Z,55.90
2022-11-25T01:30:13.563Z,56.30
2022-11-25T01:32:40.398Z,56.40
2022-11-25T01:35:07.391Z,56.10
2022-11-25T01:37:34.108Z,56.30
2022-11-25T01:40:00.741Z,55.70
2022-11-25T01:42:31.207Z,55.90
2022-11-25T01:45:28.788Z,56.50
2022-11-25T01:48:02.651Z,56.30
2022-11-25T01:50:30.304Z,56.40
2022-11-25T01:52:57.088Z,55.90
2022-11-25T01:55:25.951Z,56.00
2022-11-25T01:58:06.740Z,56.30
2022-11-25T02:00:33.779Z,56.30
2022-11-25T02:03:00.606Z,56.20
2022-11-25T02:05:34.119Z,55.90
2022-11-25T02:08:01.001Z,55.80
2022-11-25T02:10:29.930Z,55.70
2022-11-25T02:12:57.358Z,56.00
2022-11-25T02:15:24.253Z,56.00
2022-11-25T02:17:51.067Z,56.00
2022-11-25T02:20:21.810Z,55.90
2022-11-25T02:23:00.772Z,56.00
2022-11-25T02:25:32.319Z,56.00
2022-11-25T02:28:01.764Z,55.70
2022-11-25T02:30:28.461Z,56.00
2022-11-25T02:32:55.426Z,56.00
2022-11-25T02:35:31.248Z,56.10
2022-11-25T02:38:24.248Z,56.10
2022-11-25T02:41:00.814Z,55.90
2022-11-25T02:43:28.045Z,56.00
2022-11-25T02:46:00.970Z,56.10
2022-11-25T02:48:52.756Z,56.00
2022-11-25T02:51:17.413Z,56.80
2022-11-25T02:53:44.545Z,56.00
2022-11-25T02:56:12.092Z,56.00
2022-11-25T02:58:39.147Z,56.10
2022-11-25T03:01:06.097Z,56.20
2022-11-25T03:03:32.786Z,56.20
2022-11-25T03:05:59.471Z,56.30
2022-11-25T03:08:26.203Z,56.20
2022-11-25T03:10:52.880Z,55.80
2022-11-25T03:13:19.695Z,56.40
2022-11-25T03:15:46.536Z,56.20
2022-11-25T03:18:13.179Z,56.10
2022-11-25T03:20:40.009Z,56.00
2022-11-25T03:23:07.080Z,56.10
2022-11-25T03:25:35.149Z,55.90
2022-11-25T03:28:01.875Z,56.40
2022-11-25T03:30:29.447Z,56.30
2022-11-25T03:32:56.296Z,56.40
2022-11-25T03:35:23.464Z,56.10
2022-11-25T03:37:50.128Z,56.20
2022-11-25T03:40:16.902Z,56.20
2022-11-25T03:42:43.909Z,56.50
2022-11-25T03:45:13.075Z,56.70
2022-11-25T03:47:40.564Z,56.90
2022-11-25T03:50:07.989Z,56.70
2022-11-25T03:52:34.657Z,56.70
2022-11-25T03:55:01.593Z,56.10
2022-11-25T03:57:28.255Z,56.70
2022-11-25T03:59:54.888Z,56.60
2022-11-25T04:02:21.660Z,56.70
2022-11-25T04:04:48.348Z,56.80
2022-11-25T04:07:15.235Z,56.60
2022-11-25T04:09:41.876Z,56.40
2022-11-25T04:12:28.336Z,56.50
2022-11-25T04:14:54.992Z,56.50
2022-11-25T04:17:21.686Z,56.80
2022-11-25T04:19:48.517Z,56.60
2022-11-25T04:22:15.184Z,56.60
2022-11-25T04:24:41.833Z,56.20
2022-11-25T04:27:08.842Z,56.70
2022-11-25T04:29:35.500Z,56.80
2022-11-25T04:32:02.180Z,56.80
2022-11-25T04:34:28.880Z,56.70
2022-11-25T04:36:55.637Z,56.70
2022-11-25T04:39:22.346Z,56.70
2022-11-25T04:41:49.019Z,57.30
2022-11-25T04:44:15.758Z,56.70
2022-11-25T04:46:42.742Z,56.70
2022-11-25T04:49:10.816Z,56.70
2022-11-25T04:51:37.490Z,56.80
2022-11-25T04:54:04.178Z,56.70
2022-11-25T04:56:30.991Z,56.70
2022-11-25T04:59:16.398Z,56.60
2022-11-25T05:01:43.187Z,56.80
2022-11-25T05:04:09.949Z,56.70
2022-11-25T05:06:36.632Z,56.40
2022-11-25T05:09:04.693Z,56.60
2022-11-25T05:11:31.489Z,56.70
2022-11-25T05:13:58.167Z,56.40
2022-11-25T05:16:24.842Z,56.60
2022-11-25T05:18:51.517Z,56.40
2022-11-25T05:21:18.299Z,56.50
2022-11-25T05:23:45.047Z,57.00
2022-11-25T05:26:12.027Z,56.80
2022-11-25T05:28:38.700Z,56.60
2022-11-25T05:31:05.578Z,56.60
2022-11-25T05:33:32.364Z,56.60
2022-11-25T05:36:00.266Z,56.20
2022-11-25T05:38:27.065Z,56.30
2022-11-25T05:40:53.943Z,56.20
2022-11-25T05:43:20.697Z,56.40
2022-11-25T05:45:47.464Z,56.30
2022-11-25T05:48:14.169Z,56.30
2022-11-25T05:50:40.925Z,56.30
2022-11-25T05:53:07.634Z,56.40
2022-11-25T05:55:34.429Z,56.30
2022-11-25T05:58:01.152Z,56.30
2022-11-25T06:00:27.855Z,57.00
2022-11-25T06:02:54.614Z,56.40
2022-11-25T06:05:21.382Z,56.50
2022-11-25T06:07:48.167Z,56.40
2022-11-25T06:10:15.824Z,56.50
2022-11-25T06:12:42.530Z,56.40
2022-11-25T06:15:09.619Z,56.40
2022-11-25T06:17:36.297Z,56.60
2022-11-25T06:20:03.387Z,56.40
2022-11-25T06:22:30.065Z,56.40
2022-11-25T06:25:03.034Z,56.40
2022-11-25T06:27:50.140Z,56.40
2022-11-25T06:30:17.282Z,56.50
2022-11-25T06:32:43.988Z,57.10
2022-11-25T06:35:11.112Z,56.40
2022-11-25T06:37:37.987Z,56.40
2022-11-25T06:40:04.988Z,56.40
2022-11-25T06:42:31.720Z,56.30
2022-11-25T06:44:58.401Z,56.30
2022-11-25T06:47:25.154Z,56.40
2022-11-25T06:49:52.143Z,56.30
2022-11-25T06:52:18.906Z,56.30
2022-11-25T06:54:45.966Z,56.30
2022-11-25T06:57:16.367Z,56.90
2022-11-25T06:59:44.046Z,56.40
2022-11-25T07:02:14.205Z,56.50
2022-11-25T07:04:40.978Z,56.30
2022-11-25T07:07:07.938Z,56.30
2022-11-25T07:09:34.860Z,56.30
2022-11-25T07:12:01.765Z,56.30
2022-11-25T07:14:28.449Z,56.30
2022-11-25T07:16:55.191Z,56.50
2022-11-25T07:19:21.888Z,56.30
2022-11-25T07:21:48.598Z,56.40
2022-11-25T07:24:16.129Z,56.10
2022-11-25T07:26:43.602Z,56.20
2022-11-25T07:29:43.961Z,56.10
2022-11-25T07:31:58.268Z,56.10
2022-11-25T07:34:25.144Z,56.60
2022-11-25T07:36:51.972Z,56.40
2022-11-25T07:39:20.159Z,56.20
2022-11-25T07:41:49.164Z,56.40
2022-11-25T07:44:16.519Z,56.40
2022-11-25T07:46:44.434Z,56.40
2022-11-25T07:49:14.586Z,56.40
2022-11-25T07:51:48.189Z,56.40
2022-11-25T07:54:15.018Z,56.50
2022-11-25T07:56:42.625Z,56.50
2022-11-25T07:59:11.817Z,56.50
2022-11-25T08:01:38.635Z,56.60
2022-11-25T08:04:06.886Z,56.40
2022-11-25T08:06:37.268Z,56.50
2022-11-25T08:09:07.211Z,56.40
2022-11-25T08:11:34.151Z,56.40
2022-11-25T08:14:01.028Z,56.40
2022-11-25T08:16:28.839Z,56.50
2022-11-25T08:18:55.780Z,56.50
2022-11-25T08:21:22.586Z,56.50
2022-11-25T08:23:49.808Z,56.40
2022-11-25T08:26:18.265Z,56.60
2022-11-25T08:28:45.414Z,56.60
2022-11-25T08:31:14.161Z,57.20
2022-11-25T08:33:41.161Z,56.90
2022-11-25T08:36:08.336Z,56.70
2022-11-25T08:38:36.442Z,56.40
2022-11-25T08:41:03.669Z,56.20
2022-11-25T08:43:30.334Z,56.00
2022-11-25T08:45:57.306Z,55.80
2022-11-25T08:48:24.017Z,56.00
2022-11-25T08:50:52.143Z,55.90
2022-11-25T08:53:19.137Z,55.80
2022-11-25T08:55:49.553Z,56.00
2022-11-25T08:58:16.295Z,56.10
2022-11-25T09:00:44.929Z,56.10
2022-11-25T09:03:12.216Z,56.20
2022-11-25T09:05:39.639Z,56.00
2022-11-25T09:08:06.886Z,56.00
2022-11-25T09:10:34.252Z,56.10
2022-11-25T09:13:01.084Z,56.00
2022-11-25T09:15:27.822Z,56.10
2022-11-25T09:17:59.225Z,56.10
2022-11-25T09:20:26.147Z,56.00
2022-11-25T09:22:52.896Z,55.90
2022-11-25T09:25:23.655Z,56.00
2022-11-25T09:27:50.327Z,56.20
2022-11-25T09:30:17.305Z,56.10
2022-11-25T09:32:44.055Z,56.20
2022-11-25T09:35:10.894Z,56.10
2022-11-25T09:37:37.665Z,56.30
2022-11-25T09:40:05.566Z,56.40
2022-11-25T09:43:19.122Z,56.30
2022-11-25T09:46:13.424Z,56.40
2022-11-25T09:48:46.222Z,56.40
2022-11-25T09:51:21.321Z,56.30
2022-11-25T09:53:56.398Z,56.40
2022-11-25T09:56:34.106Z,56.30
2022-11-25T09:59:12.959Z,56.40
2022-11-25T10:01:45.522Z,56.50
2022-11-25T10:04:19.844Z,56.40
2022-11-25T10:06:55.301Z,56.50
2022-11-25T10:09:26.961Z,56.20
2022-11-25T10:11:55.894Z,56.30
2022-11-25T10:14:29.898Z,56.50
2022-11-25T10:17:03.732Z,56.50
2022-11-25T10:19:37.157Z,57.30
2022-11-25T10:22:30.404Z,56.50
2022-11-25T10:24:58.601Z,56.20
2022-11-25T10:27:28.634Z,56.10
2022-11-25T10:30:07.517Z,56.10
2022-11-25T10:32:38.729Z,56.00
2022-11-25T10:35:10.632Z,56.20
2022-11-25T10:37:40.549Z,56.10
2022-11-25T10:40:13.516Z,56.10
2022-11-25T10:42:40.222Z,56.30
2022-11-25T10:45:09.143Z,56.30
2022-11-25T10:47:35.988Z,56.40
2022-11-25T10:50:05.888Z,57.00
2022-11-25T10:52:35.219Z,56.50
2022-11-25T10:55:13.260Z,56.60
2022-11-25T10:57:40.102Z,56.60
2022-11-25T11:00:12.810Z,56.60
2022-11-25T11:02:48.138Z,56.70
2022-11-25T11:05:22.317Z,57.30
2022-11-25T11:08:06.413Z,56.80
2022-11-25T11:10:33.170Z,56.70
2022-11-25T11:13:04.360Z,56.80
2022-11-25T11:15:40.434Z,57.00
2022-11-25T11:18:36.202Z,57.00
2022-11-25T11:21:03.502Z,57.00
2022-11-25T11:23:57.400Z,56.90
2022-11-25T11:26:38.808Z,57.00
2022-11-25T11:29:15.904Z,57.10
2022-11-25T11:31:51.083Z,57.10
2022-11-25T11:34:32.965Z,57.20
2022-11-25T11:37:20.683Z,57.00
2022-11-25T11:40:00.868Z,57.10
2022-11-25T11:42:49.495Z,57.30
2022-11-25T11:45:26.695Z,57.30
2022-11-25T11:48:05.545Z,57.40
2022-11-25T11:50:34.168Z,57.00
2022-11-25T11:53:28.139Z,56.80
2022-11-25T11:56:19.056Z,57.20
2022-11-25T11:58:49.701Z,57.40
2022-11-25T12:01:38.513Z,57.40
2022-11-25T12:04:24.028Z,57.10
2022-11-25T12:07:03.442Z,57.10
2022-11-25T12:09:32.514Z,56.90
2022-11-25T12:12:02.900Z,57.00
2022-11-25T12:14:34.502Z,57.40
2022-11-25T12:17:03.415Z,57.30
2022-11-25T12:19:50.652Z,57.40
2022-11-25T12:22:32.510Z,57.40
2022-11-25T12:25:02.329Z,56.80
2022-11-25T12:27:35.084Z,55.70
2022-11-25T12:30:04.381Z,57.20
2022-11-25T12:32:44.172Z,57.50
2022-11-25T12:35:10.894Z,57.40
2022-11-25T12:37:39.607Z,57.50
2022-11-25T12:40:12.427Z,58.00
2022-11-25T12:42:40.616Z,57.40
2022-11-25T12:45:12.025Z,58.10
2022-11-25T12:47:38.696Z,57.60
2022-11-25T12:50:05.772Z,57.60
2022-11-25T12:52:41.718Z,57.60
2022-11-25T12:55:14.810Z,57.40
2022-11-25T12:57:53.665Z,57.50
2022-11-25T13:00:41.045Z,57.70
2022-11-25T13:03:13.762Z,57.60
2022-11-25T13:05:50.109Z,57.40
2022-11-25T13:08:51.009Z,57.40
2022-11-25T13:11:29.943Z,57.40
2022-11-25T13:14:16.025Z,57.60
2022-11-25T13:16:45.764Z,57.60
2022-11-25T13:19:16.344Z,57.70
2022-11-25T13:21:59.996Z,57.50
2022-11-25T13:24:30.342Z,57.40
2022-11-25T13:26:57.158Z,57.50
2022-11-25T13:29:26.782Z,57.70
2022-11-25T13:31:59.520Z,57.50
2022-11-25T13:34:36.170Z,57.50
2022-11-25T13:37:23.052Z,57.20
2022-11-25T13:39:49.757Z,57.20
2022-11-25T13:42:21.584Z,57.60
2022-11-25T13:44:52.997Z,57.60
2022-11-25T13:47:22.759Z,57.20
2022-11-25T13:49:49.580Z,57.30
2022-11-25T13:52:16.232Z,57.20
2022-11-25T13:54:48.934Z,57.40
2022-11-25T13:57:25.159Z,57.40
2022-11-25T13:59:53.975Z,57.30
2022-11-25T14:02:26.844Z,57.30
2022-11-25T14:04:59.233Z,57.30
2022-11-25T14:07:25.908Z,57.30
2022-11-25T14:10:02.829Z,57.20
2022-11-25T14:12:35.538Z,57.40
2022-11-25T14:15:11.725Z,57.40
2022-11-25T14:17:38.368Z,57.30
2022-11-25T14:20:18.039Z,57.40
2022-11-25T14:22:54.187Z,57.50
2022-11-25T14:25:30.428Z,57.60
2022-11-25T14:28:08.709Z,57.60
2022-11-25T14:30:45.025Z,57.40
2022-11-25T14:33:15.447Z,57.50
2022-11-25T14:35:46.278Z,56.50
2022-11-25T14:38:16.221Z,57.50
2022-11-25T14:40:54.614Z,57.50
2022-11-25T14:43:23.008Z,57.50
2022-11-25T14:46:08.920Z,57.50
2022-11-25T14:48:35.682Z,58.10
2022-11-25T14:51:04.816Z,57.50
2022-11-25T14:53:37.612Z,57.60
2022-11-25T14:56:04.541Z,57.60
2022-11-25T14:58:31.317Z,57.40
2022-11-25T15:00:58.016Z,57.50
2022-11-25T15:03:24.856Z,57.50
2022-11-25T15:05:57.228Z,57.60
2022-11-25T15:08:25.505Z,57.60
2022-11-25T15:10:57.058Z,57.60
2022-11-25T15:13:29.810Z,57.40
2022-11-25T15:16:00.349Z,57.40
2022-11-25T15:18:27.302Z,57.50
2022-11-25T15:20:58.381Z,57.50
2022-11-25T15:23:34.832Z,57.30
2022-11-25T15:26:02.275Z,57.30
2022-11-25T15:28:38.381Z,57.10
2022-11-25T15:31:09.294Z,57.30
2022-11-25T15:33:37.311Z,57.20
2022-11-25T15:36:04.543Z,57.30
2022-11-25T15:38:35.735Z,57.20
2022-11-25T15:41:02.716Z,57.20
2022-11-25T15:43:30.329Z,57.20
2022-11-25T15:46:01.562Z,56.80
2022-11-25T15:48:33.755Z,57.00
2022-11-25T15:51:05.466Z,57.30
2022-11-25T15:53:37.046Z,57.20
2022-11-25T15:56:05.018Z,57.00
2022-11-25T15:58:31.780Z,57.20
2022-11-25T16:01:06.038Z,56.70
2022-11-25T16:03:33.752Z,56.90
2022-11-25T16:06:00.877Z,57.10
2022-11-25T16:08:30.708Z,56.90
2022-11-25T16:10:59.501Z,56.90
2022-11-25T16:13:30.373Z,57.00
2022-11-25T16:16:23.964Z,56.90
2022-11-25T16:19:10.244Z,57.10
2022-11-25T16:21:36.949Z,57.20
2022-11-25T16:24:06.692Z,57.10
2022-11-25T16:26:35.035Z,57.20
2022-11-25T16:29:03.009Z,57.00
2022-11-25T16:31:29.744Z,57.00
2022-11-25T16:33:58.651Z,57.10
2022-11-25T16:36:25.379Z,55.60
2022-11-25T16:38:53.425Z,57.40
2022-11-25T16:41:22.111Z,57.50
2022-11-25T16:43:48.840Z,57.30
2022-11-25T16:46:16.854Z,57.30
2022-11-25T16:48:43.972Z,57.10
2022-11-25T16:51:15.229Z,57.00
2022-11-25T16:53:42.305Z,57.00
2022-11-25T16:56:12.419Z,56.70
2022-11-25T16:58:39.125Z,56.70
2022-11-25T17:01:05.988Z,56.90
2022-11-25T17:03:32.684Z,57.00
2022-11-25T17:06:00.019Z,56.80
2022-11-25T17:08:26.787Z,56.80
2022-11-25T17:10:57.144Z,56.80
2022-11-25T17:13:23.891Z,56.80
2022-11-25T17:15:50.696Z,56.70
2022-11-25T17:18:18.476Z,56.70
2022-11-25T17:20:45.604Z,56.80
2022-11-25T17:23:13.907Z,56.80
2022-11-25T17:25:41.462Z,56.70
2022-11-25T17:28:13.528Z,56.90
2022-11-25T17:30:40.320Z,56.60
2022-11-25T17:33:10.838Z,56.80
2022-11-25T17:35:37.522Z,56.80
2022-11-25T17:38:09.299Z,56.70
2022-11-25T17:40:36.036Z,56.80
2022-11-25T17:43:02.697Z,56.70
2022-11-25T17:45:29.614Z,56.80
2022-11-25T17:47:56.296Z,56.70
2022-11-25T17:50:25.272Z,56.70
2022-11-25T17:52:52.420Z,56.80
2022-11-25T17:55:21.584Z,56.80
2022-11-25T17:57:51.376Z,56.50
2022-11-25T18:00:19.777Z,56.60
2022-11-25T18:02:46.582Z,56.70
2022-11-25T18:05:14.880Z,56.70
2022-11-25T18:07:43.000Z,56.40
2022-11-25T18:10:10.875Z,56.40
2022-11-25T18:12:37.840Z,56.60
2022-11-25T18:15:08.235Z,56.50
2022-11-25T18:17:36.571Z,56.70
2022-11-25T18:20:26.859Z,56.70
2022-11-25T18:22:53.564Z,56.70
2022-11-25T18:25:22.270Z,56.60
2022-11-25T18:27:49.658Z,56.40
2022-11-25T18:30:19.841Z,56.20
2022-11-25T18:32:47.296Z,56.10
2022-11-25T18:35:21.284Z,56.00
2022-11-25T18:37:48.162Z,55.90
2022-11-25T18:40:15.846Z,56.00
2022-11-25T18:42:44.237Z,56.10
2022-11-25T18:45:22.693Z,56.10
2022-11-25T18:47:49.933Z,56.20
2022-11-25T18:50:18.383Z,56.20
2022-11-25T18:52:45.545Z,56.90
2022-11-25T18:55:13.404Z,56.30
2022-11-25T18:57:41.339Z,56.30
2022-11-25T19:00:34.445Z,56.30
2022-11-25T19:03:01.094Z,56.50
2022-11-25T19:05:32.947Z,56.40
2022-11-25T19:07:59.670Z,56.40
2022-11-25T19:10:28.087Z,56.40
2022-11-25T19:12:57.574Z,56.30
2022-11-25T19:15:25.077Z,56.30
2022-11-25T19:17:55.210Z,56.60
2022-11-25T19:20:23.039Z,56.60
2022-11-25T19:22:49.778Z,56.40
2022-11-25T19:25:16.477Z,56.40
2022-11-25T19:27:53.424Z,56.30
2022-11-25T19:30:21.545Z,56.30
2022-11-25T19:32:49.334Z,56.20
2022-11-25T19:35:17.388Z,56.60
2022-11-25T19:37:44.340Z,56.30
2022-11-25T19:40:18.305Z,56.30
2022-11-25T19:42:48.555Z,56.40
2022-11-25T19:45:16.355Z,56.10
2022-11-25T19:47:48.316Z,56.30
2022-11-25T19:50:28.433Z,56.50
2022-11-25T19:52:55.169Z,56.60
2022-11-25T19:55:23.424Z,56.60
2022-11-25T19:57:50.661Z,56.70
2022-11-25T20:00:19.188Z,56.50
2022-11-25T20:02:46.643Z,56.50
2022-11-25T20:05:21.620Z,56.50
2022-11-25T20:07:48.379Z,56.60
2022-11-25T20:10:18.206Z,56.60
2022-11-25T20:12:44.962Z,56.70
2022-11-25T20:15:12.225Z,56.50
2022-11-25T20:17:40.564Z,56.40
2022-11-25T20:20:11.349Z,56.30
2022-11-25T20:22:39.829Z,56.40
2022-11-25T20:25:07.398Z,56.30
2022-11-25T20:27:34.299Z,56.40
2022-11-25T20:30:01.018Z,56.60
2022-11-25T20:32:31.481Z,56.40
2022-11-25T20:34:58.868Z,56.50
2022-11-25T20:37:26.380Z,56.50
2022-11-25T20:39:54.083Z,56.40
2022-11-25T20:42:21.707Z,56.40
2022-11-25T20:44:52.080Z,56.60
2022-11-25T20:47:21.845Z,56.10
2022-11-25T20:49:48.893Z,56.50
2022-11-25T20:52:20.121Z,56.50
2022-11-25T20:54:47.324Z,56.60
2022-11-25T20:57:13.997Z,56.60
2022-11-25T20:59:40.734Z,56.40
2022-11-25T21:02:07.424Z,56.30
2022-11-25T21:04:34.090Z,56.40
2022-11-25T21:07:01.029Z,56.40
2022-11-25T21:09:31.862Z,56.70
2022-11-25T21:11:58.899Z,56.30
2022-11-25T21:14:25.577Z,56.30
2022-11-25T21:16:52.325Z,56.60
2022-11-25T21:19:19.087Z,56.40
2022-11-25T21:21:47.046Z,56.30
2022-11-25T21:24:26.102Z,56.30
2022-11-25T21:26:53.036Z,56.40
2022-11-25T21:29:19.756Z,56.30
2022-11-25T21:31:46.549Z,56.30
2022-11-25T21:34:13.874Z,56.20
2022-11-25T21:36:41.334Z,56.70
2022-11-25T21:39:09.117Z,56.60
2022-11-25T21:41:35.931Z,56.80
2022-11-25T21:44:04.338Z,56.70
2022-11-25T21:46:31.158Z,56.80
2022-11-25T21:48:57.964Z,56.50
2022-11-25T21:51:25.827Z,56.00
2022-11-25T21:53:53.179Z,56.30
2022-11-25T21:56:31.725Z,56.50
2022-11-25T21:58:59.469Z,56.60
2022-11-25T22:01:26.407Z,56.70
2022-11-25T22:03:53.209Z,57.00
2022-11-25T22:06:24.373Z,56.80
2022-11-25T22:08:51.279Z,56.90
2022-11-25T22:11:19.570Z,56.90
2022-11-25T22:13:47.443Z,56.90
2022-11-25T22:16:34.158Z,57.00
2022-11-25T22:19:01.183Z,57.00
2022-11-25T22:21:27.945Z,57.10
2022-11-25T22:23:54.781Z,56.80
2022-11-25T22:26:39.765Z,56.80
2022-11-25T22:29:10.033Z,56.60
2022-11-25T22:31:36.801Z,56.60
2022-11-25T22:34:03.544Z,56.60
2022-11-25T22:36:32.830Z,56.80
2022-11-25T22:39:12.709Z,56.90
2022-11-25T22:41:39.639Z,56.80
2022-11-25T22:44:06.632Z,56.80
2022-11-25T22:46:34.900Z,57.10
2022-11-25T22:49:01.598Z,56.60
2022-11-25T22:51:28.316Z,56.80
2022-11-25T22:53:55.049Z,56.80
2022-11-25T22:56:21.709Z,56.80
2022-11-25T22:58:48.693Z,56.90
2022-11-25T23:01:16.557Z,56.90
2022-11-25T23:03:43.825Z,56.80
2022-11-25T23:06:11.804Z,56.90
2022-11-25T23:08:38.823Z,57.10
2022-11-25T23:11:06.160Z,57.20
2022-11-25T23:13:32.842Z,57.00
2022-11-25T23:16:01.065Z,57.20
2022-11-25T23:18:34.076Z,57.40
2022-11-25T23:21:04.265Z,57.40
2022-11-25T23:23:31.075Z,57.40
2022-11-25T23:25:57.979Z,57.20
2022-11-25T23:28:24.970Z,57.30
2022-11-25T23:30:51.741Z,57.60
2022-11-25T23:33:38.667Z,57.60
2022-11-25T23:36:17.731Z,57.40
2022-11-25T23:38:46.293Z,57.40
2022-11-25T23:41:21.193Z,57.50
2022-11-25T23:43:48.198Z,57.60
2022-11-25T23:46:15.760Z,57.60
2022-11-25T23:48:43.469Z,57.70
2022-11-25T23:51:10.440Z,57.60
2022-11-25T23:53:38.700Z,57.80
2022-11-25T23:56:05.461Z,57.90
2022-11-25T23:58:32.184Z,57.70
